createdAt,value
2022-10-24T00:00:14.393Z,100002.88
2022-10-24T00:03:02.926Z,99985.56
2022-10-24T00:05:51.537Z,99981.06
2022-10-24T00:08:42.674Z,99993.41
2022-10-24T00:11:31.215Z,99990.13
2022-10-24T00:14:19.697Z,99995.03
2022-10-24T00:17:08.299Z,99994.66
2022-10-24T00:19:58.881Z,99994.66
2022-10-24T00:22:47.432Z,100005.34
2022-10-24T00:25:37.560Z,100009.06
2022-10-24T00:28:25.986Z,100016.88
2022-10-24T00:31:16.248Z,100013.16
2022-10-24T00:34:05.276Z,100018.94
2022-10-24T00:36:53.843Z,100003.94
2022-10-24T00:39:42.305Z,100014.00
2022-10-24T00:42:32.115Z,100009.88
2022-10-24T00:45:39.557Z,100000.44
2022-10-24T00:48:30.243Z,100008.25
2022-10-24T00:51:24.618Z,99999.19
2022-10-24T00:54:15.329Z,99994.66
2022-10-24T00:57:09.274Z,100002.91
2022-10-24T01:00:04.098Z,100003.94
2022-10-24T01:02:53.088Z,100000.03
2022-10-24T01:05:48.406Z,100008.25
2022-10-24T01:08:43.705Z,100004.53
2022-10-24T01:11:42.682Z,99993.84
2022-10-24T01:14:41.186Z,99990.56
2022-10-24T01:17:39.798Z,99989.53
2022-10-24T01:21:13.395Z,99984.00
2022-10-24T01:24:39.060Z,99992.00
2022-10-24T01:27:40.286Z,100002.09
2022-10-24T01:30:34.179Z,99999.44
2022-10-24T01:33:29.922Z,100001.47
2022-10-24T01:36:26.296Z,99992.59
2022-10-24T01:39:17.186Z,99979.06
2022-10-24T01:42:06.838Z,99982.34
2022-10-24T01:44:58.761Z,99980.28
2022-10-24T01:47:53.135Z,99957.69
2022-10-24T01:50:43.251Z,99947.19
2022-10-24T01:53:32.817Z,99971.84
2022-10-24T01:56:21.613Z,99962.44
2022-10-24T01:59:45.016Z,99964.69
2022-10-24T02:02:36.801Z,99964.69
2022-10-24T02:05:27.786Z,99959.31
2022-10-24T02:08:20.546Z,99950.72
2022-10-24T02:11:10.265Z,99959.75
2022-10-24T02:14:00.111Z,99955.63
2022-10-24T02:16:48.858Z,99951.16
2022-10-24T02:19:39.137Z,99959.75
2022-10-24T02:22:30.995Z,99962.63
2022-10-24T02:25:26.368Z,99948.63
2022-10-24T02:28:17.068Z,99944.94
2022-10-24T02:31:09.639Z,99936.75
2022-10-24T02:33:58.448Z,99927.25
2022-10-24T02:36:49.999Z,99925.63
2022-10-24T02:39:40.109Z,99917.38
2022-10-24T02:45:24.887Z,99919.81
2022-10-24T02:48:16.146Z,99921.47
2022-10-24T02:51:05.433Z,99924.56
2022-10-24T02:53:55.417Z,99917.75
2022-10-24T02:56:48.111Z,99925.19
2022-10-24T02:59:36.538Z,99927.25
2022-10-24T03:02:25.452Z,99930.13
2022-10-24T03:05:14.299Z,99935.72
2022-10-24T03:08:04.085Z,99934.22
2022-10-24T03:10:54.299Z,99933.19
2022-10-24T03:13:43.534Z,99944.94
2022-10-24T03:16:33.071Z,99951.91
2022-10-24T03:19:22.099Z,99946.56
2022-10-24T03:22:10.957Z,99952.75
2022-10-24T03:25:02.183Z,99947.41
2022-10-24T03:27:53.384Z,99946.13
2022-10-24T03:30:43.626Z,99947.00
2022-10-24T03:33:33.188Z,99949.06
2022-10-24T03:36:26.413Z,99956.06
2022-10-24T03:39:15.225Z,99950.72
2022-10-24T03:42:04.535Z,99958.13
2022-10-24T03:44:56.609Z,99954.41
2022-10-24T03:47:45.428Z,99962.00
2022-10-24T03:50:34.684Z,99955.63
2022-10-24T03:53:23.527Z,99958.28
2022-10-24T03:56:12.615Z,99956.66
2022-10-24T03:59:02.240Z,99958.94
2022-10-24T04:01:53.699Z,99968.81
2022-10-24T04:04:43.561Z,99960.81
2022-10-24T04:07:32.054Z,99968.81
2022-10-24T04:10:20.664Z,99955.22
2022-10-24T04:13:09.180Z,99958.13
2022-10-24T04:15:57.714Z,99950.72
2022-10-24T04:18:47.691Z,99957.66
2022-10-24T04:21:36.202Z,99959.31
2022-10-24T04:24:24.719Z,99958.69
2022-10-24T04:27:13.211Z,99963.44
2022-10-24T04:30:01.729Z,99963.44
2022-10-24T04:32:50.161Z,99971.66
2022-10-24T04:35:40.022Z,99977.84
2022-10-24T04:38:33.236Z,99971.19
2022-10-24T04:41:22.132Z,99977.41
2022-10-24T04:44:10.638Z,99969.13
2022-10-24T04:46:59.038Z,99963.47
2022-10-24T04:49:47.591Z,99970.88
2022-10-24T04:52:37.482Z,99967.59
2022-10-24T04:55:26.020Z,99965.53
2022-10-24T04:58:14.564Z,99956.91
2022-10-24T05:01:03.518Z,99951.53
2022-10-24T05:03:54.892Z,99952.78
2022-10-24T05:06:45.038Z,99955.63
2022-10-24T05:09:35.304Z,99954.34
2022-10-24T05:12:23.772Z,99958.91
2022-10-24T05:15:14.325Z,99962.59
2022-10-24T05:18:03.570Z,99967.34
2022-10-24T05:20:52.093Z,99957.09
2022-10-24T05:23:40.557Z,99968.59
2022-10-24T05:26:30.404Z,99967.78
2022-10-24T05:29:18.950Z,99976.59
2022-10-24T05:32:07.493Z,99955.22
2022-10-24T05:34:55.914Z,99963.84
2022-10-24T05:37:44.686Z,99955.22
2022-10-24T05:40:33.154Z,99958.13
2022-10-24T05:43:23.253Z,99953.19
2022-10-24T05:46:11.728Z,99942.50
2022-10-24T05:49:00.232Z,99961.63
2022-10-24T05:51:48.751Z,99963.91
2022-10-24T05:54:48.614Z,99969.50
2022-10-24T05:57:46.238Z,99973.41
2022-10-24T06:00:36.342Z,99971.34
2022-10-24T06:03:25.343Z,99967.41
2022-10-24T06:06:13.970Z,99968.88
2022-10-24T06:09:04.179Z,99974.22
2022-10-24T06:11:55.731Z,99972.97
2022-10-24T06:14:45.200Z,99966.59
2022-10-24T06:17:35.657Z,99968.63
2022-10-24T06:20:24.307Z,99975.44
2022-10-24T06:23:12.890Z,99982.41
2022-10-24T06:26:01.566Z,99978.13
2022-10-24T06:28:51.826Z,99982.84
2022-10-24T06:31:40.476Z,99976.25
2022-10-24T06:34:30.844Z,99986.28
2022-10-24T06:37:19.895Z,99981.59
2022-10-24T06:40:10.071Z,99985.22
2022-10-24T06:43:02.313Z,99988.56
2022-10-24T06:45:51.076Z,99988.56
2022-10-24T06:48:40.053Z,99985.25
2022-10-24T06:51:30.294Z,99987.34
2022-10-24T06:54:18.827Z,99998.84
2022-10-24T06:57:07.366Z,100007.47
2022-10-24T06:59:55.862Z,100014.47
2022-10-24T07:02:44.538Z,100007.03
2022-10-24T07:05:33.203Z,100010.34
2022-10-24T07:08:23.281Z,100013.03
2022-10-24T07:11:11.742Z,100014.47
2022-10-24T07:14:01.882Z,100010.34
2022-10-24T07:16:51.903Z,100005.41
2022-10-24T07:19:40.389Z,100011.59
2022-10-24T07:22:31.369Z,100014.25
2022-10-24T07:25:22.777Z,100006.25
2022-10-24T07:28:12.246Z,100002.09
2022-10-24T07:31:00.953Z,99998.38
2022-10-24T07:33:52.581Z,100003.09
2022-10-24T07:36:43.820Z,99995.91
2022-10-24T07:39:32.537Z,100005.97
2022-10-24T07:42:22.624Z,100010.28
2022-10-24T07:45:12.284Z,100012.56
2022-10-24T07:48:01.222Z,100015.44
2022-10-24T07:50:49.920Z,100007.00
2022-10-24T07:53:38.710Z,100011.56
2022-10-24T07:56:27.261Z,100007.44
2022-10-24T07:59:37.107Z,100000.03
2022-10-24T08:02:25.720Z,99994.69
2022-10-24T08:05:17.039Z,99994.66
2022-10-24T08:11:19.371Z,99997.88
2022-10-24T08:14:07.936Z,100000.59
2022-10-24T08:16:57.918Z,99999.97
2022-10-24T08:19:46.582Z,99988.84
2022-10-24T08:22:39.237Z,99998.31
2022-10-24T08:25:28.018Z,100006.34
2022-10-24T08:28:16.551Z,99996.09
2022-10-24T08:31:06.875Z,99996.25
2022-10-24T08:33:57.833Z,100001.00
2022-10-24T08:36:46.897Z,100000.56
2022-10-24T08:39:35.635Z,100003.66
2022-10-24T08:42:25.492Z,100003.22
2022-10-24T08:45:16.646Z,100003.22
2022-10-24T08:48:08.176Z,100006.94
2022-10-24T08:51:02.961Z,100005.75
2022-10-24T08:53:51.937Z,100000.41
2022-10-24T08:56:40.727Z,100001.19
2022-10-24T08:59:31.664Z,100002.63
2022-10-24T09:02:23.868Z,100005.91
2022-10-24T09:05:26.526Z,99999.16
2022-10-24T09:08:23.912Z,99990.53
2022-10-24T09:11:16.855Z,99983.09
2022-10-24T09:14:09.110Z,99985.16
2022-10-24T09:17:02.022Z,99984.75
2022-10-24T09:19:54.457Z,99985.19
2022-10-24T09:22:44.562Z,99983.72
2022-10-24T09:25:37.106Z,99995.44
2022-10-24T09:28:26.464Z,99987.22
2022-10-24T09:31:19.086Z,99992.16
2022-10-24T09:34:07.904Z,99983.91
2022-10-24T09:36:56.922Z,99987.22
2022-10-24T09:39:45.813Z,99974.09
2022-10-24T09:42:41.689Z,99984.34
2022-10-24T09:45:42.449Z,99981.03
2022-10-24T09:48:41.752Z,99986.78
2022-10-24T09:51:34.385Z,99991.69
2022-10-24T09:54:28.629Z,100008.94
2022-10-24T09:57:18.795Z,99994.13
2022-10-24T10:00:23.091Z,99977.44
2022-10-24T10:03:23.930Z,99984.19
2022-10-24T10:06:18.059Z,99985.22
2022-10-24T10:09:14.736Z,99982.16
2022-10-24T10:12:03.735Z,99975.75
2022-10-24T10:14:52.959Z,99971.84
2022-10-24T10:17:51.077Z,99968.56
2022-10-24T10:20:41.915Z,99967.38
2022-10-24T10:23:32.903Z,99958.31
2022-10-24T10:26:25.531Z,99962.03
2022-10-24T10:29:24.281Z,99951.31
2022-10-24T10:32:19.281Z,99950.69
2022-10-24T10:35:15.821Z,99954.00
2022-10-24T10:38:11.915Z,99965.75
2022-10-24T10:41:03.573Z,99960.53
2022-10-24T10:44:00.982Z,99962.63
2022-10-24T10:46:56.407Z,99953.56
2022-10-24T10:49:47.575Z,99950.50
2022-10-24T10:52:45.263Z,99943.91
2022-10-24T10:55:39.554Z,99952.97
2022-10-24T10:58:34.200Z,99941.44
2022-10-24T11:01:32.248Z,99933.19
2022-10-24T11:04:26.451Z,99930.69
2022-10-24T11:07:20.065Z,99918.34
2022-10-24T11:10:12.597Z,99907.66
2022-10-24T11:13:07.216Z,99914.56
2022-10-24T11:15:58.330Z,99924.06
2022-10-24T11:18:49.153Z,99918.34
2022-10-24T11:21:39.513Z,99921.91
2022-10-24T11:24:28.298Z,99935.28
2022-10-24T11:27:22.484Z,99939.34
2022-10-24T11:30:15.505Z,99929.31
2022-10-24T11:33:07.302Z,99929.94
2022-10-24T11:36:06.216Z,99929.31
2022-10-24T11:38:59.846Z,99931.97
2022-10-24T11:41:54.682Z,99919.66
2022-10-24T11:44:49.400Z,99914.69
2022-10-24T11:47:58.869Z,99920.88
2022-10-24T11:50:50.265Z,99915.53
2022-10-24T11:53:51.598Z,99923.34
2022-10-24T11:56:43.152Z,99930.34
2022-10-24T11:59:31.916Z,99934.06
2022-10-24T12:03:02.875Z,99946.81
2022-10-24T12:06:20.146Z,99932.22
2022-10-24T12:09:33.548Z,99926.63
2022-10-24T12:12:48.395Z,99913.69
2022-10-24T12:15:47.546Z,99901.69
2022-10-24T12:18:41.085Z,99924.72
2022-10-24T12:21:36.862Z,99948.25
2022-10-24T12:24:30.864Z,99951.59
2022-10-24T12:27:27.969Z,99947.25
2022-10-24T12:30:21.649Z,99950.38
2022-10-24T12:33:14.202Z,99943.13
2022-10-24T12:36:04.526Z,99943.34
2022-10-24T12:39:09.063Z,99935.31
2022-10-24T12:41:59.116Z,99935.75
2022-10-24T12:44:50.462Z,99938.22
2022-10-24T12:47:45.964Z,99928.34
2022-10-24T12:51:02.742Z,99930.03
2022-10-24T12:54:17.599Z,99924.69
2022-10-24T12:57:24.158Z,99923.63
2022-10-24T13:00:25.393Z,99918.88
2022-10-24T13:03:19.018Z,99908.19
2022-10-24T13:06:09.443Z,99910.88
2022-10-24T13:09:09.854Z,99896.66
2022-10-24T13:12:09.542Z,99899.88
2022-10-24T13:15:15.298Z,99892.16
2022-10-24T13:18:22.035Z,99902.59
2022-10-24T13:21:19.253Z,99897.50
2022-10-24T13:24:13.674Z,99902.44
2022-10-24T13:27:27.427Z,99914.78
2022-10-24T13:30:33.636Z,99909.81
2022-10-24T13:33:43.750Z,99921.72
2022-10-24T13:36:33.317Z,99918.41
2022-10-24T13:39:25.971Z,99919.34
2022-10-24T13:42:35.061Z,99919.59
2022-10-24T13:45:29.025Z,99930.03
2022-10-24T13:48:20.207Z,99938.22
2022-10-24T13:51:15.842Z,99945.69
2022-10-24T13:54:11.443Z,99948.16
2022-10-24T13:57:02.225Z,99955.63
2022-10-24T13:59:59.091Z,99959.50
2022-10-24T14:02:48.147Z,99954.19
2022-10-24T14:05:39.898Z,99944.38
2022-10-24T14:08:30.903Z,99937.09
2022-10-24T14:11:23.819Z,99935.63
2022-10-24T14:14:27.245Z,99937.69
2022-10-24T14:17:24.349Z,99942.34
2022-10-24T14:20:23.810Z,99938.69
2022-10-24T14:23:28.234Z,99937.84
2022-10-24T14:26:20.475Z,99946.91
2022-10-24T14:29:21.622Z,99945.28
2022-10-24T14:32:15.990Z,99937.41
2022-10-24T14:35:06.808Z,99933.75
2022-10-24T14:37:55.876Z,99943.25
2022-10-24T14:40:45.301Z,99949.22
2022-10-24T14:43:33.856Z,99952.09
2022-10-24T14:46:39.147Z,99948.63
2022-10-24T14:49:33.523Z,99947.03
2022-10-24T14:52:29.962Z,99956.50
2022-10-24T14:55:21.273Z,99955.03
2022-10-24T14:58:24.993Z,99953.19
2022-10-24T15:01:18.277Z,99964.31
2022-10-24T15:04:07.176Z,99963.06
2022-10-24T15:06:57.447Z,99960.19
2022-10-24T15:09:58.265Z,99961.47
2022-10-24T15:12:49.485Z,99960.03
2022-10-24T15:15:50.817Z,99966.63
2022-10-24T15:18:44.010Z,99968.66
2022-10-24T15:21:35.576Z,99970.94
2022-10-24T15:24:25.785Z,99970.94
2022-10-24T15:27:27.333Z,99972.41
2022-10-24T15:30:16.605Z,99977.47
2022-10-24T15:33:07.238Z,99983.88
2022-10-24T15:35:57.846Z,99986.59
2022-10-24T15:38:46.589Z,99985.34
2022-10-24T15:41:35.311Z,99992.97
2022-10-24T15:44:27.336Z,100002.19
2022-10-24T15:47:15.907Z,99998.91
2022-10-24T15:50:06.721Z,100000.53
2022-10-24T15:52:57.562Z,100000.75
2022-10-24T15:55:46.274Z,99999.69
2022-10-24T15:58:34.975Z,100009.00
2022-10-24T16:01:30.219Z,100000.59
2022-10-24T16:04:19.446Z,100008.78
2022-10-24T16:09:57.639Z,100003.81
2022-10-24T16:12:47.158Z,100004.88
2022-10-24T16:15:37.631Z,99996.84
2022-10-24T16:18:27.503Z,99996.44
2022-10-24T16:21:17.921Z,99999.66
2022-10-24T16:24:07.261Z,100007.50
2022-10-24T16:26:55.799Z,99999.66
2022-10-24T16:29:44.228Z,100004.38
2022-10-24T16:32:32.651Z,100004.09
2022-10-24T16:35:24.631Z,100004.09
2022-10-24T16:38:13.195Z,100000.44
2022-10-24T16:41:02.240Z,100004.09
2022-10-24T16:43:50.894Z,100001.19
2022-10-24T16:46:39.415Z,100000.81
2022-10-24T16:49:28.404Z,100005.31
2022-10-24T16:52:18.184Z,100001.19
2022-10-24T16:55:07.352Z,100007.75
2022-10-24T16:57:55.835Z,100014.28
2022-10-24T17:00:44.342Z,100012.56
2022-10-24T17:03:33.610Z,100001.50
2022-10-24T17:06:22.167Z,99998.19
2022-10-24T17:09:11.955Z,99993.94
2022-10-24T17:12:00.433Z,99998.88
2022-10-24T17:14:49.160Z,99996.59
2022-10-24T17:17:39.841Z,100004.41
2022-10-24T17:20:28.329Z,99994.16
2022-10-24T17:23:20.681Z,100001.16
2022-10-24T17:26:16.361Z,100008.56
2022-10-24T17:29:06.023Z,100002.00
2022-10-24T17:31:55.204Z,100007.56
2022-10-24T17:34:45.267Z,99995.44
2022-10-24T17:37:42.165Z,99989.25
2022-10-24T17:40:40.201Z,99995.22
2022-10-24T17:43:30.758Z,99993.22
2022-10-24T17:46:19.716Z,99999.13
2022-10-24T17:49:10.582Z,99994.81
2022-10-24T17:51:59.021Z,99992.94
2022-10-24T17:54:47.499Z,99989.09
2022-10-24T17:57:35.874Z,100000.41
2022-10-24T18:00:25.680Z,99996.66
2022-10-24T18:03:14.631Z,99997.13
2022-10-24T18:06:04.425Z,100011.28
2022-10-24T18:08:54.753Z,100015.84
2022-10-24T18:11:43.303Z,100020.75
2022-10-24T18:14:31.835Z,100025.66
2022-10-24T18:17:21.609Z,100024.28
2022-10-24T18:20:11.115Z,100022.22
2022-10-24T18:22:59.918Z,100021.78
2022-10-24T18:25:48.371Z,100019.34
2022-10-24T18:28:39.298Z,100012.31
2022-10-24T18:31:30.318Z,100018.66
2022-10-24T18:34:20.104Z,100023.41
2022-10-24T18:37:09.321Z,100034.97
2022-10-24T18:39:58.291Z,100036.22
2022-10-24T18:42:51.078Z,100029.44
2022-10-24T18:45:40.432Z,100039.28
2022-10-24T18:48:29.626Z,100027.56
2022-10-24T18:51:26.435Z,100040.72
2022-10-24T18:54:16.604Z,100032.91
2022-10-24T18:57:05.379Z,100034.97
2022-10-24T18:59:54.195Z,100035.38
2022-10-24T19:02:49.624Z,100025.72
2022-10-24T19:05:43.500Z,100029.63
2022-10-24T19:08:33.705Z,100022.25
2022-10-24T19:11:24.659Z,100025.28
2022-10-24T19:14:14.909Z,100028.00
2022-10-24T19:17:04.112Z,100033.34
2022-10-24T19:19:54.502Z,100041.78
2022-10-24T19:22:43.140Z,100032.53
2022-10-24T19:25:33.275Z,100036.25
2022-10-24T19:28:23.098Z,100034.63
2022-10-24T19:31:12.433Z,100031.09
2022-10-24T19:34:00.856Z,100029.28
2022-10-24T19:36:49.318Z,100036.66
2022-10-24T19:39:37.824Z,100042.03
2022-10-24T19:42:29.964Z,100043.66
2022-10-24T19:45:21.489Z,100035.66
2022-10-24T19:48:14.295Z,100042.81
2022-10-24T19:51:04.379Z,100047.53
2022-10-24T19:53:57.029Z,100044.03
2022-10-24T19:56:45.973Z,100039.53
2022-10-24T19:59:36.336Z,100041.78
2022-10-24T20:02:31.107Z,100049.41
2022-10-24T20:05:19.522Z,100045.50
2022-10-24T20:08:08.082Z,100042.63
2022-10-24T20:10:58.068Z,100046.75
2022-10-24T20:13:46.617Z,100051.09
2022-10-24T20:16:36.470Z,100045.94
2022-10-24T20:19:24.976Z,100042.44
2022-10-24T20:22:13.559Z,100047.38
2022-10-24T20:25:02.052Z,100052.09
2022-10-24T20:27:50.424Z,100063.00
2022-10-24T20:30:42.326Z,100063.44
2022-10-24T20:33:32.127Z,100058.91
2022-10-24T20:36:21.773Z,100060.13
2022-10-24T20:39:10.542Z,100063.03
2022-10-24T20:41:59.067Z,100061.41
2022-10-24T20:44:47.562Z,100060.56
2022-10-24T20:47:36.637Z,100063.84
2022-10-24T20:50:26.361Z,100068.38
2022-10-24T20:53:15.567Z,100069.63
2022-10-24T20:56:08.207Z,100067.97
2022-10-24T20:58:57.424Z,100068.38
2022-10-24T21:01:45.953Z,100068.34
2022-10-24T21:04:34.443Z,100065.06
2022-10-24T21:07:24.292Z,100066.31
2022-10-24T21:10:13.148Z,100074.94
2022-10-24T21:13:01.557Z,100076.56
2022-10-24T21:15:50.137Z,100064.25
2022-10-24T21:18:38.663Z,100066.69
2022-10-24T21:21:27.831Z,100064.25
2022-10-24T21:24:18.741Z,100064.25
2022-10-24T21:27:07.253Z,100068.16
2022-10-24T21:29:55.797Z,100075.38
2022-10-24T21:32:44.343Z,100068.81
2022-10-24T21:35:32.799Z,100065.91
2022-10-24T21:38:21.197Z,100072.47
2022-10-24T21:41:12.010Z,100072.47
2022-10-24T21:44:00.488Z,100072.47
2022-10-24T21:46:48.909Z,100084.00
2022-10-24T21:49:37.331Z,100083.19
2022-10-24T21:52:25.881Z,100081.13
2022-10-24T21:55:14.371Z,100094.28
2022-10-24T21:58:04.180Z,100084.00
2022-10-24T22:00:52.703Z,100082.78
2022-10-24T22:03:41.496Z,100087.31
2022-10-24T22:06:31.654Z,100093.50
2022-10-24T22:09:23.543Z,100081.97
2022-10-24T22:12:12.180Z,100089.13
2022-10-24T22:15:02.024Z,100082.56
2022-10-24T22:17:50.999Z,100088.94
2022-10-24T22:20:40.238Z,100087.31
2022-10-24T22:23:28.982Z,100095.31
2022-10-24T22:26:17.402Z,100083.59
2022-10-24T22:29:06.627Z,100083.59
2022-10-24T22:31:57.335Z,100081.97
2022-10-24T22:34:46.190Z,100082.34
2022-10-24T22:37:34.816Z,100092.66
2022-10-24T22:40:26.848Z,100103.72
2022-10-24T22:43:15.929Z,100109.69
2022-10-24T22:46:09.589Z,100102.91
2022-10-24T22:49:04.658Z,100111.16
2022-10-24T22:51:53.685Z,100101.50
2022-10-24T22:54:42.708Z,100095.50
2022-10-24T22:57:31.632Z,100103.72
2022-10-24T23:00:21.506Z,100097.19
2022-10-24T23:03:16.030Z,100104.97
2022-10-24T23:06:12.476Z,100107.88
2022-10-24T23:09:00.829Z,100109.50
2022-10-24T23:11:49.808Z,100112.78
2022-10-24T23:14:38.697Z,100111.53
2022-10-24T23:17:29.043Z,100129.84
2022-10-24T23:20:24.784Z,100128.81
2022-10-24T23:23:28.119Z,100142.59
2022-10-24T23:26:27.318Z,100149.16
2022-10-24T23:29:20.506Z,100148.13
2022-10-24T23:32:15.092Z,100155.97
2022-10-24T23:35:04.104Z,100155.13
2022-10-24T23:37:53.794Z,100157.59
2022-10-24T23:40:44.117Z,100151.84
2022-10-24T23:43:33.079Z,100150.63
2022-10-24T23:46:27.009Z,100143.59
2022-10-24T23:49:24.385Z,100149.59
2022-10-24T23:52:18.743Z,100147.31
2022-10-24T23:55:08.357Z,100150.81
2022-10-24T23:57:58.139Z,100156.75
